sensor_id;sensor_type;location;lat;lon;timestamp;pressure;altitude;pressure_sealevel;temperature;humidity
3254;BME280;1639;42.804;23.342;2023-01-27T00:00:10;73905.16;;;-148.52;100.00
3254;BME280;1639;42.804;23.342;2023-01-27T00:02:37;73890.66;;;-148.52;100.00
3254;BME280;1639;42.804;23.342;2023-01-27T00:05:02;73892.75;;;-148.52;100.00
3254;BME280;1639;42.804;23.342;2023-01-27T00:07:28;73913.44;;;-148.52;100.00
3254;BME280;1639;42.804;23.342;2023-01-27T00:09:53;73907.22;;;-148.52;100.00
3254;BME280;1639;42.804;23.342;2023-01-27T00:12:21;73921.69;;;-148.52;100.00
3254;BME280;1639;42.804;23.342;2023-01-27T00:15:07;73915.50;;;-148.52;100.00
3254;BME280;1639;42.804;23.342;2023-01-27T00:17:33;73915.50;;;-148.52;100.00
3254;BME280;1639;42.804;23.342;2023-01-27T00:19:59;73925.84;;;-148.52;100.00
3254;BME280;1639;42.804;23.342;2023-01-27T00:22:24;73917.56;;;-148.52;100.00
3254;BME280;1639;42.804;23.342;2023-01-27T00:25:08;73896.88;;;-148.52;100.00
3254;BME280;1639;42.804;23.342;2023-01-27T00:27:34;73903.09;;;-148.52;100.00
3254;BME280;1639;42.804;23.342;2023-01-27T00:29:59;73892.75;;;-148.52;100.00
3254;BME280;1639;42.804;23.342;2023-01-27T00:32:25;73878.25;;;-148.52;100.00
3254;BME280;1639;42.804;23.342;2023-01-27T00:35:08;73876.19;;;-148.52;100.00
3254;BME280;1639;42.804;23.342;2023-01-27T00:37:35;73855.50;;;-148.52;100.00
3254;BME280;1639;42.804;23.342;2023-01-27T00:40:00;73859.63;;;-148.52;100.00
3254;BME280;1639;42.804;23.342;2023-01-27T00:42:26;73878.25;;;-148.52;100.00
3254;BME280;1639;42.804;23.342;2023-01-27T00:44:51;73874.13;;;-148.52;100.00
3254;BME280;1639;42.804;23.342;2023-01-27T00:47:35;73880.31;;;-148.52;100.00
3254;BME280;1639;42.804;23.342;2023-01-27T00:50:00;73878.25;;;-148.52;100.00
3254;BME280;1639;42.804;23.342;2023-01-27T00:52:25;73892.75;;;-148.52;100.00
3254;BME280;1639;42.804;23.342;2023-01-27T00:54:51;73894.81;;;-148.52;100.00
3254;BME280;1639;42.804;23.342;2023-01-27T00:57:16;73874.13;;;-148.52;100.00
3254;BME280;1639;42.804;23.342;2023-01-27T00:59:42;73886.53;;;-148.52;100.00
3254;BME280;1639;42.804;23.342;2023-01-27T01:02:07;73888.59;;;-148.52;100.00
3254;BME280;1639;42.804;23.342;2023-01-27T01:04:33;73882.41;;;-148.52;100.00
3254;BME280;1639;42.804;23.342;2023-01-27T01:06:58;73894.81;;;-148.52;100.00
3254;BME280;1639;42.804;23.342;2023-01-27T01:09:23;73872.06;;;-148.52;100.00
3254;BME280;1639;42.804;23.342;2023-01-27T01:11:49;73878.25;;;-148.52;100.00
3254;BME280;1639;42.804;23.342;2023-01-27T01:14:14;73876.19;;;-148.52;100.00
3254;BME280;1639;42.804;23.342;2023-01-27T01:16:40;73872.06;;;-148.52;100.00
3254;BME280;1639;42.804;23.342;2023-01-27T01:19:05;73861.72;;;-148.52;100.00
3254;BME280;1639;42.804;23.342;2023-01-27T01:21:30;73857.56;;;-148.52;100.00
3254;BME280;1639;42.804;23.342;2023-01-27T01:23:56;73865.84;;;-148.52;100.00
3254;BME280;1639;42.804;23.342;2023-01-27T01:26:21;73869.97;;;-148.52;100.00
3254;BME280;1639;42.804;23.342;2023-01-27T01:28:46;73861.72;;;-148.52;100.00
3254;BME280;1639;42.804;23.342;2023-01-27T01:31:16;73865.84;;;-148.52;100.00
3254;BME280;1639;42.804;23.342;2023-01-27T01:33:42;73853.44;;;-148.52;100.00
3254;BME280;1639;42.804;23.342;2023-01-27T01:36:10;73836.88;;;-148.52;100.00
3254;BME280;1639;42.804;23.342;2023-01-27T01:38:36;73830.69;;;-148.52;100.00
3254;BME280;1639;42.804;23.342;2023-01-27T01:41:03;73830.69;;;-148.52;100.00
3254;BME280;1639;42.804;23.342;2023-01-27T01:43:29;73824.47;;;-148.52;100.00
3254;BME280;1639;42.804;23.342;2023-01-27T01:45:56;73803.78;;;-148.52;100.00
3254;BME280;1639;42.804;23.342;2023-01-27T01:51:09;73793.44;;;-148.52;100.00
3254;BME280;1639;42.804;23.342;2023-01-27T01:53:41;73778.97;;;-148.52;100.00
3254;BME280;1639;42.804;23.342;2023-01-27T01:56:12;73764.47;;;-148.52;100.00
3254;BME280;1639;42.804;23.342;2023-01-27T01:58:40;73766.56;;;-148.52;100.00
3254;BME280;1639;42.804;23.342;2023-01-27T02:01:06;73764.47;;;-148.52;100.00
3254;BME280;1639;42.804;23.342;2023-01-27T02:03:34;73760.34;;;-148.52;100.00
3254;BME280;1639;42.804;23.342;2023-01-27T02:06:01;73778.97;;;-148.52;100.00
3254;BME280;1639;42.804;23.342;2023-01-27T02:08:29;73783.09;;;-148.52;100.00
3254;BME280;1639;42.804;23.342;2023-01-27T02:10:58;73778.97;;;-148.52;100.00
3254;BME280;1639;42.804;23.342;2023-01-27T02:13:24;73768.63;;;-148.52;100.00
3254;BME280;1639;42.804;23.342;2023-01-27T02:15:51;73766.56;;;-148.52;100.00
3254;BME280;1639;42.804;23.342;2023-01-27T02:18:18;73754.13;;;-148.52;100.00
3254;BME280;1639;42.804;23.342;2023-01-27T02:20:46;73756.22;;;-148.52;100.00
3254;BME280;1639;42.804;23.342;2023-01-27T02:28:30;73750.00;;;-148.52;100.00
3254;BME280;1639;42.804;23.342;2023-01-27T02:30:56;73754.13;;;-148.52;100.00
3254;BME280;1639;42.804;23.342;2023-01-27T02:33:22;73737.59;;;-148.52;100.00
3254;BME280;1639;42.804;23.342;2023-01-27T02:38:30;73743.78;;;-148.52;100.00
3254;BME280;1639;42.804;23.342;2023-01-27T02:41:02;73721.03;;;-148.52;100.00
3254;BME280;1639;42.804;23.342;2023-01-27T02:43:29;73733.44;;;-148.52;100.00
3254;BME280;1639;42.804;23.342;2023-01-27T02:45:54;73721.03;;;-148.52;100.00
3254;BME280;1639;42.804;23.342;2023-01-27T02:48:20;73716.91;;;-148.52;100.00
3254;BME280;1639;42.804;23.342;2023-01-27T02:50:45;73692.09;;;-148.52;100.00
3254;BME280;1639;42.804;23.342;2023-01-27T02:53:11;73683.81;;;-148.52;100.00
3254;BME280;1639;42.804;23.342;2023-01-27T02:55:36;73685.88;;;-148.52;100.00
3254;BME280;1639;42.804;23.342;2023-01-27T02:58:01;73690.00;;;-148.52;100.00
3254;BME280;1639;42.804;23.342;2023-01-27T03:00:27;73687.94;;;-148.52;100.00
3254;BME280;1639;42.804;23.342;2023-01-27T03:02:53;73696.22;;;-148.52;100.00
3254;BME280;1639;42.804;23.342;2023-01-27T03:05:18;73683.81;;;-148.52;100.00
3254;BME280;1639;42.804;23.342;2023-01-27T03:07:44;73675.53;;;-148.52;100.00
3254;BME280;1639;42.804;23.342;2023-01-27T03:10:09;73692.09;;;-148.52;100.00
3254;BME280;1639;42.804;23.342;2023-01-27T03:12:35;73671.41;;;-148.52;100.00
3254;BME280;1639;42.804;23.342;2023-01-27T03:15:01;73677.59;;;-148.52;100.00
3254;BME280;1639;42.804;23.342;2023-01-27T03:17:44;73675.53;;;-148.52;100.00
3254;BME280;1639;42.804;23.342;2023-01-27T03:20:28;73673.47;;;-148.52;100.00
3254;BME280;1639;42.804;23.342;2023-01-27T03:22:54;73673.47;;;-148.52;100.00
3254;BME280;1639;42.804;23.342;2023-01-27T03:25:19;73671.41;;;-148.52;100.00
3254;BME280;1639;42.804;23.342;2023-01-27T03:27:45;73675.53;;;-148.52;100.00
3254;BME280;1639;42.804;23.342;2023-01-27T03:30:10;73681.75;;;-148.52;100.00
3254;BME280;1639;42.804;23.342;2023-01-27T03:32:36;73687.94;;;-148.52;100.00
3254;BME280;1639;42.804;23.342;2023-01-27T03:35:02;73694.16;;;-148.52;100.00
3254;BME280;1639;42.804;23.342;2023-01-27T03:37:29;73696.22;;;-148.52;100.00
3254;BME280;1639;42.804;23.342;2023-01-27T03:40:14;73696.22;;;-148.52;100.00
3254;BME280;1639;42.804;23.342;2023-01-27T03:42:58;73692.09;;;-148.52;100.00
3254;BME280;1639;42.804;23.342;2023-01-27T03:45:46;73687.94;;;-148.52;100.00
3254;BME280;1639;42.804;23.342;2023-01-27T03:48:31;73679.66;;;-148.52;100.00
3254;BME280;1639;42.804;23.342;2023-01-27T03:50:57;73667.25;;;-148.52;100.00
3254;BME280;1639;42.804;23.342;2023-01-27T03:53:23;73683.81;;;-148.52;100.00
3254;BME280;1639;42.804;23.342;2023-01-27T03:55:48;73677.59;;;-148.52;100.00
3254;BME280;1639;42.804;23.342;2023-01-27T04:00:55;73679.66;;;-148.52;100.00
3254;BME280;1639;42.804;23.342;2023-01-27T04:03:23;73671.41;;;-148.52;100.00
3254;BME280;1639;42.804;23.342;2023-01-27T04:06:34;73675.53;;;-148.52;100.00
3254;BME280;1639;42.804;23.342;2023-01-27T04:11:53;73652.78;;;-148.52;100.00
3254;BME280;1639;42.804;23.342;2023-01-27T04:14:28;73661.06;;;-148.52;100.00
3254;BME280;1639;42.804;23.342;2023-01-27T04:17:05;73665.19;;;-148.52;100.00
3254;BME280;1639;42.804;23.342;2023-01-27T04:19:32;73679.66;;;-148.52;100.00
3254;BME280;1639;42.804;23.342;2023-01-27T04:21:59;73690.00;;;-148.52;100.00
3254;BME280;1639;42.804;23.342;2023-01-27T04:24:25;73696.22;;;-148.52;100.00
3254;BME280;1639;42.804;23.342;2023-01-27T04:26:56;73694.16;;;-148.52;100.00
3254;BME280;1639;42.804;23.342;2023-01-27T04:29:24;73685.88;;;-148.52;100.00
3254;BME280;1639;42.804;23.342;2023-01-27T04:31:50;73683.81;;;-148.52;100.00
3254;BME280;1639;42.804;23.342;2023-01-27T04:34:16;73698.28;;;-148.52;100.00
3254;BME280;1639;42.804;23.342;2023-01-27T04:36:42;73706.56;;;-148.52;100.00
3254;BME280;1639;42.804;23.342;2023-01-27T04:39:08;73704.50;;;-148.52;100.00
3254;BME280;1639;42.804;23.342;2023-01-27T04:41:34;73712.75;;;-148.52;100.00
3254;BME280;1639;42.804;23.342;2023-01-27T04:44:00;73716.91;;;-148.52;100.00
3254;BME280;1639;42.804;23.342;2023-01-27T04:46:26;73704.50;;;-148.52;100.00
3254;BME280;1639;42.804;23.342;2023-01-27T04:48:51;73708.63;;;-148.52;100.00
3254;BME280;1639;42.804;23.342;2023-01-27T04:51:18;73716.91;;;-148.52;100.00
3254;BME280;1639;42.804;23.342;2023-01-27T04:53:43;73735.53;;;-148.52;100.00
3254;BME280;1639;42.804;23.342;2023-01-27T04:56:35;73729.31;;;-148.52;100.00
3254;BME280;1639;42.804;23.342;2023-01-27T04:59:04;73735.53;;;-148.52;100.00
3254;BME280;1639;42.804;23.342;2023-01-27T05:01:30;73752.06;;;-148.52;100.00
3254;BME280;1639;42.804;23.342;2023-01-27T05:03:56;73754.13;;;-148.52;100.00
3254;BME280;1639;42.804;23.342;2023-01-27T05:06:22;73739.66;;;-148.52;100.00
3254;BME280;1639;42.804;23.342;2023-01-27T05:08:48;73727.25;;;-148.52;100.00
3254;BME280;1639;42.804;23.342;2023-01-27T05:11:13;73716.91;;;-148.52;100.00
3254;BME280;1639;42.804;23.342;2023-01-27T05:13:39;73718.97;;;-148.52;100.00
3254;BME280;1639;42.804;23.342;2023-01-27T05:16:09;73708.63;;;-148.52;100.00
3254;BME280;1639;42.804;23.342;2023-01-27T05:18:35;73704.50;;;-148.52;100.00
3254;BME280;1639;42.804;23.342;2023-01-27T05:21:02;73704.50;;;-148.52;100.00
3254;BME280;1639;42.804;23.342;2023-01-27T05:23:28;73708.63;;;-148.52;100.00
3254;BME280;1639;42.804;23.342;2023-01-27T05:26:05;73716.91;;;-148.52;100.00
3254;BME280;1639;42.804;23.342;2023-01-27T05:28:31;73712.75;;;-148.52;100.00
3254;BME280;1639;42.804;23.342;2023-01-27T05:31:04;73721.03;;;-148.52;100.00
3254;BME280;1639;42.804;23.342;2023-01-27T05:33:30;73733.44;;;-148.52;100.00
3254;BME280;1639;42.804;23.342;2023-01-27T05:36:00;73754.13;;;-148.52;100.00
3254;BME280;1639;42.804;23.342;2023-01-27T05:38:26;73760.34;;;-148.52;100.00
3254;BME280;1639;42.804;23.342;2023-01-27T05:40:56;73737.59;;;-148.52;100.00
3254;BME280;1639;42.804;23.342;2023-01-27T05:43:22;73716.91;;;-148.52;100.00
3254;BME280;1639;42.804;23.342;2023-01-27T05:45:47;73696.22;;;-148.52;100.00
3254;BME280;1639;42.804;23.342;2023-01-27T05:48:13;73685.88;;;-148.52;100.00
3254;BME280;1639;42.804;23.342;2023-01-27T05:50:38;73663.13;;;-148.52;100.00
3254;BME280;1639;42.804;23.342;2023-01-27T05:53:03;73656.91;;;-148.52;100.00
3254;BME280;1639;42.804;23.342;2023-01-27T05:55:29;73654.84;;;-148.52;100.00
3254;BME280;1639;42.804;23.342;2023-01-27T05:57:54;73663.13;;;-148.52;100.00
3254;BME280;1639;42.804;23.342;2023-01-27T06:00:20;73673.47;;;-148.52;100.00
3254;BME280;1639;42.804;23.342;2023-01-27T06:02:45;73675.53;;;-148.52;100.00
3254;BME280;1639;42.804;23.342;2023-01-27T06:05:11;73671.41;;;-148.52;100.00
3254;BME280;1639;42.804;23.342;2023-01-27T06:07:36;73667.25;;;-148.52;100.00
3254;BME280;1639;42.804;23.342;2023-01-27T06:10:01;73673.47;;;-148.52;100.00
3254;BME280;1639;42.804;23.342;2023-01-27T06:12:27;73690.00;;;-148.52;100.00
3254;BME280;1639;42.804;23.342;2023-01-27T06:14:52;73685.88;;;-148.52;100.00
3254;BME280;1639;42.804;23.342;2023-01-27T06:17:19;73687.94;;;-148.52;100.00
3254;BME280;1639;42.804;23.342;2023-01-27T06:19:44;73685.88;;;-148.52;100.00
3254;BME280;1639;42.804;23.342;2023-01-27T06:22:10;73683.81;;;-148.52;100.00
3254;BME280;1639;42.804;23.342;2023-01-27T06:24:35;73681.75;;;-148.52;100.00
3254;BME280;1639;42.804;23.342;2023-01-27T06:27:01;73683.81;;;-148.52;100.00
3254;BME280;1639;42.804;23.342;2023-01-27T06:29:26;73681.75;;;-148.52;100.00
3254;BME280;1639;42.804;23.342;2023-01-27T06:31:52;73671.41;;;-148.52;100.00
3254;BME280;1639;42.804;23.342;2023-01-27T06:34:17;73673.47;;;-148.52;100.00
3254;BME280;1639;42.804;23.342;2023-01-27T06:36:42;73683.81;;;-148.52;100.00
3254;BME280;1639;42.804;23.342;2023-01-27T06:39:08;73685.88;;;-148.52;100.00
3254;BME280;1639;42.804;23.342;2023-01-27T06:41:34;73675.53;;;-148.52;100.00
3254;BME280;1639;42.804;23.342;2023-01-27T06:43:59;73673.47;;;-148.52;100.00
3254;BME280;1639;42.804;23.342;2023-01-27T06:46:24;73675.53;;;-148.52;100.00
3254;BME280;1639;42.804;23.342;2023-01-27T06:48:50;73681.75;;;-148.52;100.00
3254;BME280;1639;42.804;23.342;2023-01-27T06:51:15;73687.94;;;-148.52;100.00
3254;BME280;1639;42.804;23.342;2023-01-27T06:53:40;73681.75;;;-148.52;100.00
3254;BME280;1639;42.804;23.342;2023-01-27T06:56:06;73687.94;;;-148.52;100.00
3254;BME280;1639;42.804;23.342;2023-01-27T06:58:32;73677.59;;;-148.52;100.00
3254;BME280;1639;42.804;23.342;2023-01-27T07:00:57;73677.59;;;-148.52;100.00
3254;BME280;1639;42.804;23.342;2023-01-27T07:03:23;73677.59;;;-148.52;100.00
3254;BME280;1639;42.804;23.342;2023-01-27T07:05:49;73679.66;;;-148.52;100.00
3254;BME280;1639;42.804;23.342;2023-01-27T07:08:15;73667.25;;;-148.52;100.00
3254;BME280;1639;42.804;23.342;2023-01-27T07:10:40;73658.97;;;-148.52;100.00
3254;BME280;1639;42.804;23.342;2023-01-27T07:13:07;73658.97;;;-148.52;100.00
3254;BME280;1639;42.804;23.342;2023-01-27T07:15:33;73648.63;;;-148.52;100.00
3254;BME280;1639;42.804;23.342;2023-01-27T07:18:00;73644.50;;;-148.52;100.00
3254;BME280;1639;42.804;23.342;2023-01-27T07:20:26;73625.88;;;-148.52;100.00
3254;BME280;1639;42.804;23.342;2023-01-27T07:23:03;73630.03;;;-148.52;100.00
3254;BME280;1639;42.804;23.342;2023-01-27T07:25:30;73625.88;;;-148.52;100.00
3254;BME280;1639;42.804;23.342;2023-01-27T07:27:56;73625.88;;;-148.52;100.00
3254;BME280;1639;42.804;23.342;2023-01-27T07:30:22;73621.75;;;-148.52;100.00
3254;BME280;1639;42.804;23.342;2023-01-27T07:32:48;73630.03;;;-148.52;100.00
3254;BME280;1639;42.804;23.342;2023-01-27T07:35:15;73625.88;;;-148.52;100.00
3254;BME280;1639;42.804;23.342;2023-01-27T07:37:40;73617.63;;;-148.52;100.00
3254;BME280;1639;42.804;23.342;2023-01-27T07:40:08;73619.69;;;-148.52;100.00
3254;BME280;1639;42.804;23.342;2023-01-27T07:42:33;73627.97;;;-148.52;100.00
3254;BME280;1639;42.804;23.342;2023-01-27T07:44:59;73625.88;;;-148.52;100.00
3254;BME280;1639;42.804;23.342;2023-01-27T07:47:24;73619.69;;;-148.52;100.00
3254;BME280;1639;42.804;23.342;2023-01-27T07:49:50;73613.47;;;-148.52;100.00
3254;BME280;1639;42.804;23.342;2023-01-27T07:52:15;73613.47;;;-148.52;100.00
3254;BME280;1639;42.804;23.342;2023-01-27T07:54:41;73617.63;;;-148.52;100.00
3254;BME280;1639;42.804;23.342;2023-01-27T07:57:06;73611.41;;;-148.52;100.00
3254;BME280;1639;42.804;23.342;2023-01-27T07:59:32;73613.47;;;-148.52;100.00
3254;BME280;1639;42.804;23.342;2023-01-27T08:01:57;73607.28;;;-148.52;100.00
3254;BME280;1639;42.804;23.342;2023-01-27T08:04:22;73605.19;;;-148.52;100.00
3254;BME280;1639;42.804;23.342;2023-01-27T08:06:48;73609.34;;;-148.52;100.00
3254;BME280;1639;42.804;23.342;2023-01-27T08:09:13;73617.63;;;-148.52;100.00
3254;BME280;1639;42.804;23.342;2023-01-27T08:11:38;73617.63;;;-148.52;100.00
3254;BME280;1639;42.804;23.342;2023-01-27T08:14:04;73623.81;;;-148.52;100.00
3254;BME280;1639;42.804;23.342;2023-01-27T08:16:29;73613.47;;;-148.52;100.00
3254;BME280;1639;42.804;23.342;2023-01-27T08:18:55;73617.63;;;-148.52;100.00
3254;BME280;1639;42.804;23.342;2023-01-27T08:21:20;73630.03;;;-148.52;100.00
3254;BME280;1639;42.804;23.342;2023-01-27T08:23:46;73634.16;;;-148.52;100.00
3254;BME280;1639;42.804;23.342;2023-01-27T08:26:11;73617.63;;;-148.52;100.00
3254;BME280;1639;42.804;23.342;2023-01-27T08:28:38;73605.19;;;-148.52;100.00
3254;BME280;1639;42.804;23.342;2023-01-27T08:31:14;73607.28;;;-148.52;100.00
3254;BME280;1639;42.804;23.342;2023-01-27T08:33:41;73596.94;;;-148.52;100.00
3254;BME280;1639;42.804;23.342;2023-01-27T08:36:10;73599.00;;;-148.52;100.00
3254;BME280;1639;42.804;23.342;2023-01-27T08:38:36;73601.06;;;-148.52;100.00
3254;BME280;1639;42.804;23.342;2023-01-27T08:41:06;73590.72;;;-148.52;100.00
3254;BME280;1639;42.804;23.342;2023-01-27T08:43:32;73594.84;;;-148.52;100.00
3254;BME280;1639;42.804;23.342;2023-01-27T08:45:58;73592.78;;;-148.52;100.00
3254;BME280;1639;42.804;23.342;2023-01-27T08:48:26;73601.06;;;-148.52;100.00
3254;BME280;1639;42.804;23.342;2023-01-27T08:50:52;73611.41;;;-148.52;100.00
3254;BME280;1639;42.804;23.342;2023-01-27T08:53:17;73601.06;;;-148.52;100.00
3254;BME280;1639;42.804;23.342;2023-01-27T08:55:42;73599.00;;;-148.52;100.00
3254;BME280;1639;42.804;23.342;2023-01-27T08:58:08;73601.06;;;-148.52;100.00
3254;BME280;1639;42.804;23.342;2023-01-27T09:00:33;73609.34;;;-148.52;100.00
3254;BME280;1639;42.804;23.342;2023-01-27T09:02:59;73594.84;;;-148.52;100.00
3254;BME280;1639;42.804;23.342;2023-01-27T09:05:24;73599.00;;;-148.52;100.00
3254;BME280;1639;42.804;23.342;2023-01-27T09:07:49;73576.25;;;-148.52;100.00
3254;BME280;1639;42.804;23.342;2023-01-27T09:10:15;73567.97;;;-148.52;100.00
3254;BME280;1639;42.804;23.342;2023-01-27T09:12:41;73567.97;;;-148.52;100.00
3254;BME280;1639;42.804;23.342;2023-01-27T09:15:07;73576.25;;;-148.52;100.00
3254;BME280;1639;42.804;23.342;2023-01-27T09:17:33;73580.38;;;-148.52;100.00
3254;BME280;1639;42.804;23.342;2023-01-27T09:19:58;73576.25;;;-148.52;100.00
3254;BME280;1639;42.804;23.342;2023-01-27T09:22:24;73576.25;;;-148.52;100.00
3254;BME280;1639;42.804;23.342;2023-01-27T09:24:49;73584.50;;;-148.52;100.00
3254;BME280;1639;42.804;23.342;2023-01-27T09:27:15;73576.25;;;-148.52;100.00
3254;BME280;1639;42.804;23.342;2023-01-27T09:29:40;73572.09;;;-148.52;100.00
3254;BME280;1639;42.804;23.342;2023-01-27T09:32:06;73574.16;;;-148.52;100.00
3254;BME280;1639;42.804;23.342;2023-01-27T09:34:33;73576.25;;;-148.52;100.00
3254;BME280;1639;42.804;23.342;2023-01-27T09:37:03;73576.25;;;-148.52;100.00
3254;BME280;1639;42.804;23.342;2023-01-27T09:39:31;73574.16;;;-148.52;100.00
3254;BME280;1639;42.804;23.342;2023-01-27T09:46:01;73572.09;;;-148.52;100.00
3254;BME280;1639;42.804;23.342;2023-01-27T09:48:33;73563.84;;;-148.52;100.00
3254;BME280;1639;42.804;23.342;2023-01-27T09:51:17;73557.63;;;-148.52;100.00
3254;BME280;1639;42.804;23.342;2023-01-27T09:54:21;73530.75;;;-148.52;100.00
3254;BME280;1639;42.804;23.342;2023-01-27T09:57:03;73526.59;;;-148.52;100.00
3254;BME280;1639;42.804;23.342;2023-01-27T10:05:17;73547.28;;;-148.52;100.00
3254;BME280;1639;42.804;23.342;2023-01-27T10:08:29;73541.06;;;-148.52;100.00
3254;BME280;1639;42.804;23.342;2023-01-27T10:11:07;73551.41;;;-148.52;100.00
3254;BME280;1639;42.804;23.342;2023-01-27T10:13:48;73555.56;;;-148.52;100.00
3254;BME280;1639;42.804;23.342;2023-01-27T10:22:32;73543.16;;;-148.52;100.00
3254;BME280;1639;42.804;23.342;2023-01-27T10:27:35;73518.31;;;-148.52;100.00
3254;BME280;1639;42.804;23.342;2023-01-27T10:30:09;73514.19;;;-148.52;100.00
3254;BME280;1639;42.804;23.342;2023-01-27T10:32:41;73510.06;;;-148.52;100.00
3254;BME280;1639;42.804;23.342;2023-01-27T10:35:19;73518.31;;;-148.52;100.00
3254;BME280;1639;42.804;23.342;2023-01-27T10:49:15;73503.84;;;-148.52;100.00
3254;BME280;1639;42.804;23.342;2023-01-27T10:54:40;73499.72;;;-148.52;100.00
3254;BME280;1639;42.804;23.342;2023-01-27T10:57:20;73485.22;;;-148.52;100.00
3254;BME280;1639;42.804;23.342;2023-01-27T11:02:42;73489.38;;;-148.52;100.00
3254;BME280;1639;42.804;23.342;2023-01-27T11:05:19;73487.31;;;-148.52;100.00
3254;BME280;1639;42.804;23.342;2023-01-27T11:07:53;73485.22;;;-148.52;100.00
3254;BME280;1639;42.804;23.342;2023-01-27T11:10:24;73489.38;;;-148.52;100.00
3254;BME280;1639;42.804;23.342;2023-01-27T11:12:57;73476.97;;;-148.52;100.00
3254;BME280;1639;42.804;23.342;2023-01-27T11:15:29;73474.88;;;-148.52;100.00
3254;BME280;1639;42.804;23.342;2023-01-27T11:18:11;73464.53;;;-148.52;100.00
3254;BME280;1639;42.804;23.342;2023-01-27T11:20:44;73462.47;;;-148.52;100.00
3254;BME280;1639;42.804;23.342;2023-01-27T11:23:21;73464.53;;;-148.52;100.00
3254;BME280;1639;42.804;23.342;2023-01-27T11:26:03;73476.97;;;-148.52;100.00
3254;BME280;1639;42.804;23.342;2023-01-27T11:37:31;73485.22;;;-148.52;100.00
3254;BME280;1639;42.804;23.342;2023-01-27T11:39:58;73485.22;;;-148.52;100.00
3254;BME280;1639;42.804;23.342;2023-01-27T11:42:30;73497.63;;;-148.52;100.00
3254;BME280;1639;42.804;23.342;2023-01-27T11:44:58;73481.09;;;-148.52;100.00
3254;BME280;1639;42.804;23.342;2023-01-27T11:47:28;73476.97;;;-148.52;100.00
3254;BME280;1639;42.804;23.342;2023-01-27T11:49:55;73474.88;;;-148.52;100.00
3254;BME280;1639;42.804;23.342;2023-01-27T11:52:22;73474.88;;;-148.52;100.00
3254;BME280;1639;42.804;23.342;2023-01-27T11:55:00;73481.09;;;-148.52;100.00
3254;BME280;1639;42.804;23.342;2023-01-27T11:57:29;73485.22;;;-148.52;100.00
3254;BME280;1639;42.804;23.342;2023-01-27T12:00:03;73476.97;;;-148.52;100.00
3254;BME280;1639;42.804;23.342;2023-01-27T12:02:35;73491.44;;;-148.52;100.00
3254;BME280;1639;42.804;23.342;2023-01-27T12:05:12;73476.97;;;-148.52;100.00
3254;BME280;1639;42.804;23.342;2023-01-27T12:07:47;73479.03;;;-148.52;100.00
3254;BME280;1639;42.804;23.342;2023-01-27T12:10:33;73474.88;;;-148.52;100.00
3254;BME280;1639;42.804;23.342;2023-01-27T12:13:16;73476.97;;;-148.52;100.00
3254;BME280;1639;42.804;23.342;2023-01-27T12:16:14;73489.38;;;-148.52;100.00
3254;BME280;1639;42.804;23.342;2023-01-27T12:19:14;73487.31;;;-148.52;100.00
3254;BME280;1639;42.804;23.342;2023-01-27T12:21:45;73487.31;;;-148.52;100.00
3254;BME280;1639;42.804;23.342;2023-01-27T12:24:37;73483.16;;;-148.52;100.00
3254;BME280;1639;42.804;23.342;2023-01-27T12:27:05;73489.38;;;-148.52;100.00
3254;BME280;1639;42.804;23.342;2023-01-27T12:29:41;73501.78;;;-148.52;100.00
3254;BME280;1639;42.804;23.342;2023-01-27T12:32:22;73501.78;;;-148.52;100.00
3254;BME280;1639;42.804;23.342;2023-01-27T12:34:50;73501.78;;;-148.52;100.00
3254;BME280;1639;42.804;23.342;2023-01-27T12:37:31;73487.31;;;-148.52;100.00
3254;BME280;1639;42.804;23.342;2023-01-27T12:39:59;73487.31;;;-148.52;100.00
3254;BME280;1639;42.804;23.342;2023-01-27T12:45:19;73505.91;;;-148.52;100.00
3254;BME280;1639;42.804;23.342;2023-01-27T12:50:37;73505.91;;;-148.52;100.00
3254;BME280;1639;42.804;23.342;2023-01-27T12:55:39;73481.09;;;-148.52;100.00
3254;BME280;1639;42.804;23.342;2023-01-27T12:58:30;73479.03;;;-148.52;100.00
3254;BME280;1639;42.804;23.342;2023-01-27T13:00:57;73468.69;;;-148.52;100.00
3254;BME280;1639;42.804;23.342;2023-01-27T13:03:24;73452.13;;;-148.52;100.00
3254;BME280;1639;42.804;23.342;2023-01-27T13:05:56;73454.19;;;-148.52;100.00
3254;BME280;1639;42.804;23.342;2023-01-27T13:08:24;73448.00;;;-148.52;100.00
3254;BME280;1639;42.804;23.342;2023-01-27T13:10:58;73439.72;;;-148.52;100.00
3254;BME280;1639;42.804;23.342;2023-01-27T13:13:26;73425.25;;;-148.52;100.00
3254;BME280;1639;42.804;23.342;2023-01-27T13:18:32;73402.50;;;-148.52;100.00
3254;BME280;1639;42.804;23.342;2023-01-27T13:21:17;73396.28;;;-148.52;100.00
3254;BME280;1639;42.804;23.342;2023-01-27T13:23:47;73404.56;;;-148.52;100.00
3254;BME280;1639;42.804;23.342;2023-01-27T13:26:17;73404.56;;;-148.52;100.00
3254;BME280;1639;42.804;23.342;2023-01-27T13:28:57;73379.75;;;-148.52;100.00
3254;BME280;1639;42.804;23.342;2023-01-27T13:34:29;73357.00;;;-148.52;100.00
3254;BME280;1639;42.804;23.342;2023-01-27T13:42:29;73363.19;;;-148.52;100.00
3254;BME280;1639;42.804;23.342;2023-01-27T13:45:01;73359.06;;;-148.52;100.00
3254;BME280;1639;42.804;23.342;2023-01-27T13:47:50;73354.91;;;-148.52;100.00
3254;BME280;1639;42.804;23.342;2023-01-27T13:50:25;73332.16;;;-148.52;100.00
3254;BME280;1639;42.804;23.342;2023-01-27T13:52:54;73332.16;;;-148.52;100.00
3254;BME280;1639;42.804;23.342;2023-01-27T13:55:33;73323.91;;;-148.52;100.00
3254;BME280;1639;42.804;23.342;2023-01-27T13:58:04;73319.75;;;-148.52;100.00
3254;BME280;1639;42.804;23.342;2023-01-27T14:01:09;73321.81;;;-148.52;100.00
3254;BME280;1639;42.804;23.342;2023-01-27T14:06:23;73348.72;;;-148.52;100.00
3254;BME280;1639;42.804;23.342;2023-01-27T14:24:46;73390.09;;;-148.52;100.00
3254;BME280;1639;42.804;23.342;2023-01-27T14:27:19;73385.94;;;-148.52;100.00
3254;BME280;1639;42.804;23.342;2023-01-27T14:30:07;73394.22;;;-148.52;100.00